sensor_id;sensor_type;location;lat;lon;timestamp;temperature;humidity
59041;DHT22;44825;53.200;6.448;2022-09-21T00:01:08;10.40;99.90
59041;DHT22;44825;53.200;6.448;2022-09-21T00:03:36;10.40;99.90
59041;DHT22;44825;53.200;6.448;2022-09-21T00:06:06;10.40;99.90
59041;DHT22;44825;53.200;6.448;2022-09-21T00:08:35;10.40;99.90
59041;DHT22;44825;53.200;6.448;2022-09-21T00:11:02;10.40;99.90
59041;DHT22;44825;53.200;6.448;2022-09-21T00:13:30;10.30;99.90
59041;DHT22;44825;53.200;6.448;2022-09-21T00:15:58;10.30;99.90
59041;DHT22;44825;53.200;6.448;2022-09-21T00:18:28;10.20;99.90
59041;DHT22;44825;53.200;6.448;2022-09-21T00:20:56;10.20;99.90
59041;DHT22;44825;53.200;6.448;2022-09-21T00:23:23;10.20;99.90
59041;DHT22;44825;53.200;6.448;2022-09-21T00:25:51;10.20;99.90
59041;DHT22;44825;53.200;6.448;2022-09-21T00:28:18;10.20;99.90
59041;DHT22;44825;53.200;6.448;2022-09-21T00:30:46;10.30;99.90
59041;DHT22;44825;53.200;6.448;2022-09-21T00:33:16;10.20;99.90
59041;DHT22;44825;53.200;6.448;2022-09-21T00:35:45;10.20;99.90
59041;DHT22;44825;53.200;6.448;2022-09-21T00:38:13;10.20;99.90
59041;DHT22;44825;53.200;6.448;2022-09-21T00:40:41;10.20;99.90
59041;DHT22;44825;53.200;6.448;2022-09-21T00:43:11;10.30;99.90
59041;DHT22;44825;53.200;6.448;2022-09-21T00:45:39;10.20;99.90
59041;DHT22;44825;53.200;6.448;2022-09-21T00:48:15;10.20;99.90
59041;DHT22;44825;53.200;6.448;2022-09-21T00:50:45;10.20;99.90
59041;DHT22;44825;53.200;6.448;2022-09-21T00:53:15;10.10;99.90
59041;DHT22;44825;53.200;6.448;2022-09-21T00:55:46;10.00;99.90
59041;DHT22;44825;53.200;6.448;2022-09-21T00:58:19;10.00;99.90
59041;DHT22;44825;53.200;6.448;2022-09-21T01:00:49;9.90;99.90
59041;DHT22;44825;53.200;6.448;2022-09-21T01:03:18;9.90;99.90
59041;DHT22;44825;53.200;6.448;2022-09-21T01:05:46;10.00;99.90
59041;DHT22;44825;53.200;6.448;2022-09-21T01:08:14;10.00;99.90
59041;DHT22;44825;53.200;6.448;2022-09-21T01:11:04;10.00;99.90
59041;DHT22;44825;53.200;6.448;2022-09-21T01:13:45;10.00;99.90
59041;DHT22;44825;53.200;6.448;2022-09-21T01:16:20;10.10;99.90
59041;DHT22;44825;53.200;6.448;2022-09-21T01:18:57;10.00;99.90
59041;DHT22;44825;53.200;6.448;2022-09-21T01:21:30;10.00;99.90
59041;DHT22;44825;53.200;6.448;2022-09-21T01:29:58;9.80;99.90
59041;DHT22;44825;53.200;6.448;2022-09-21T01:32:30;9.80;99.90
59041;DHT22;44825;53.200;6.448;2022-09-21T01:35:02;9.80;99.90
59041;DHT22;44825;53.200;6.448;2022-09-21T01:37:36;9.80;99.90
59041;DHT22;44825;53.200;6.448;2022-09-21T01:40:08;9.80;99.90
59041;DHT22;44825;53.200;6.448;2022-09-21T01:42:39;9.80;99.90
59041;DHT22;44825;53.200;6.448;2022-09-21T01:45:11;9.80;99.90
59041;DHT22;44825;53.200;6.448;2022-09-21T01:47:42;9.80;99.90
59041;DHT22;44825;53.200;6.448;2022-09-21T01:50:11;9.80;99.90
59041;DHT22;44825;53.200;6.448;2022-09-21T01:52:42;9.80;99.90
59041;DHT22;44825;53.200;6.448;2022-09-21T01:55:14;9.80;99.90
59041;DHT22;44825;53.200;6.448;2022-09-21T01:57:48;9.80;99.90
59041;DHT22;44825;53.200;6.448;2022-09-21T02:00:20;9.80;99.90
59041;DHT22;44825;53.200;6.448;2022-09-21T02:02:51;9.70;99.90
59041;DHT22;44825;53.200;6.448;2022-09-21T02:05:21;9.70;99.90
59041;DHT22;44825;53.200;6.448;2022-09-21T02:07:50;9.60;99.90
59041;DHT22;44825;53.200;6.448;2022-09-21T02:10:21;9.70;99.90
59041;DHT22;44825;53.200;6.448;2022-09-21T02:12:53;9.70;99.90
59041;DHT22;44825;53.200;6.448;2022-09-21T02:15:29;9.60;99.90
59041;DHT22;44825;53.200;6.448;2022-09-21T02:18:02;9.60;99.90
59041;DHT22;44825;53.200;6.448;2022-09-21T02:20:35;9.50;99.90
59041;DHT22;44825;53.200;6.448;2022-09-21T02:23:09;9.40;99.90
59041;DHT22;44825;53.200;6.448;2022-09-21T02:25:43;9.30;99.90
59041;DHT22;44825;53.200;6.448;2022-09-21T02:28:21;9.20;99.90
59041;DHT22;44825;53.200;6.448;2022-09-21T02:30:57;9.30;99.90
59041;DHT22;44825;53.200;6.448;2022-09-21T02:33:29;9.20;99.90
59041;DHT22;44825;53.200;6.448;2022-09-21T02:36:03;9.20;99.90
59041;DHT22;44825;53.200;6.448;2022-09-21T02:38:35;9.10;99.90
59041;DHT22;44825;53.200;6.448;2022-09-21T02:41:07;9.10;99.90
59041;DHT22;44825;53.200;6.448;2022-09-21T02:43:42;9.10;99.90
59041;DHT22;44825;53.200;6.448;2022-09-21T02:46:16;9.00;99.90
59041;DHT22;44825;53.200;6.448;2022-09-21T02:48:48;9.00;99.90
59041;DHT22;44825;53.200;6.448;2022-09-21T02:51:19;8.90;99.90
59041;DHT22;44825;53.200;6.448;2022-09-21T02:53:49;8.80;99.90
59041;DHT22;44825;53.200;6.448;2022-09-21T02:56:19;8.80;99.90
59041;DHT22;44825;53.200;6.448;2022-09-21T02:58:50;8.80;99.90
59041;DHT22;44825;53.200;6.448;2022-09-21T03:01:22;8.80;99.90
59041;DHT22;44825;53.200;6.448;2022-09-21T03:03:50;8.80;99.90
59041;DHT22;44825;53.200;6.448;2022-09-21T03:06:18;8.70;99.90
59041;DHT22;44825;53.200;6.448;2022-09-21T03:08:45;8.70;99.90
59041;DHT22;44825;53.200;6.448;2022-09-21T03:11:15;8.70;99.90
59041;DHT22;44825;53.200;6.448;2022-09-21T03:13:43;8.70;99.90
59041;DHT22;44825;53.200;6.448;2022-09-21T03:16:12;8.70;99.90
59041;DHT22;44825;53.200;6.448;2022-09-21T03:18:41;8.70;99.90
59041;DHT22;44825;53.200;6.448;2022-09-21T03:21:09;8.70;99.90
59041;DHT22;44825;53.200;6.448;2022-09-21T03:23:37;8.60;99.90
59041;DHT22;44825;53.200;6.448;2022-09-21T03:26:05;8.60;99.90
59041;DHT22;44825;53.200;6.448;2022-09-21T03:28:33;8.60;99.90
59041;DHT22;44825;53.200;6.448;2022-09-21T03:31:00;8.60;99.90
59041;DHT22;44825;53.200;6.448;2022-09-21T03:33:28;8.60;99.90
59041;DHT22;44825;53.200;6.448;2022-09-21T03:35:56;8.60;99.90
59041;DHT22;44825;53.200;6.448;2022-09-21T03:38:24;8.70;99.90
59041;DHT22;44825;53.200;6.448;2022-09-21T03:40:52;8.70;99.90
59041;DHT22;44825;53.200;6.448;2022-09-21T03:43:19;8.70;99.90
59041;DHT22;44825;53.200;6.448;2022-09-21T03:45:47;8.70;99.90
59041;DHT22;44825;53.200;6.448;2022-09-21T03:48:14;8.70;99.90
59041;DHT22;44825;53.200;6.448;2022-09-21T03:50:42;8.70;99.90
59041;DHT22;44825;53.200;6.448;2022-09-21T03:53:10;8.70;99.90
59041;DHT22;44825;53.200;6.448;2022-09-21T03:55:38;8.70;99.90
59041;DHT22;44825;53.200;6.448;2022-09-21T03:58:05;8.70;99.90
59041;DHT22;44825;53.200;6.448;2022-09-21T04:00:33;8.70;99.90
59041;DHT22;44825;53.200;6.448;2022-09-21T04:03:01;8.60;99.90
59041;DHT22;44825;53.200;6.448;2022-09-21T04:05:28;8.60;99.90
59041;DHT22;44825;53.200;6.448;2022-09-21T04:07:55;8.60;99.90
59041;DHT22;44825;53.200;6.448;2022-09-21T04:10:24;8.60;99.90
59041;DHT22;44825;53.200;6.448;2022-09-21T04:12:58;8.60;99.90
59041;DHT22;44825;53.200;6.448;2022-09-21T04:15:26;8.70;99.90
59041;DHT22;44825;53.200;6.448;2022-09-21T04:17:54;8.70;99.90
59041;DHT22;44825;53.200;6.448;2022-09-21T04:20:22;8.70;99.90
59041;DHT22;44825;53.200;6.448;2022-09-21T04:22:49;8.70;99.90
59041;DHT22;44825;53.200;6.448;2022-09-21T04:25:17;8.70;99.90
59041;DHT22;44825;53.200;6.448;2022-09-21T04:27:46;8.60;99.90
59041;DHT22;44825;53.200;6.448;2022-09-21T04:30:15;8.60;99.90
59041;DHT22;44825;53.200;6.448;2022-09-21T04:32:43;8.50;99.90
59041;DHT22;44825;53.200;6.448;2022-09-21T04:35:10;8.50;99.90
59041;DHT22;44825;53.200;6.448;2022-09-21T04:37:37;8.50;99.90
59041;DHT22;44825;53.200;6.448;2022-09-21T04:40:06;8.50;99.90
59041;DHT22;44825;53.200;6.448;2022-09-21T04:42:34;8.50;99.90
59041;DHT22;44825;53.200;6.448;2022-09-21T04:45:03;8.50;99.90
59041;DHT22;44825;53.200;6.448;2022-09-21T04:47:30;8.50;99.90
59041;DHT22;44825;53.200;6.448;2022-09-21T04:49:58;8.60;99.90
59041;DHT22;44825;53.200;6.448;2022-09-21T04:52:25;8.60;99.90
59041;DHT22;44825;53.200;6.448;2022-09-21T04:54:52;8.60;99.90
59041;DHT22;44825;53.200;6.448;2022-09-21T04:57:19;8.60;99.90
59041;DHT22;44825;53.200;6.448;2022-09-21T04:59:47;8.60;99.90
59041;DHT22;44825;53.200;6.448;2022-09-21T05:02:15;8.60;99.90
59041;DHT22;44825;53.200;6.448;2022-09-21T05:04:43;8.60;99.90
59041;DHT22;44825;53.200;6.448;2022-09-21T05:07:10;8.60;99.90
59041;DHT22;44825;53.200;6.448;2022-09-21T05:09:37;8.70;99.90
59041;DHT22;44825;53.200;6.448;2022-09-21T05:12:22;8.70;99.90
59041;DHT22;44825;53.200;6.448;2022-09-21T05:14:49;8.70;99.90
59041;DHT22;44825;53.200;6.448;2022-09-21T05:17:18;8.70;99.90
59041;DHT22;44825;53.200;6.448;2022-09-21T05:19:47;8.70;99.90
59041;DHT22;44825;53.200;6.448;2022-09-21T05:22:15;8.80;99.90
59041;DHT22;44825;53.200;6.448;2022-09-21T05:24:43;8.80;99.90
59041;DHT22;44825;53.200;6.448;2022-09-21T05:27:10;8.80;99.90
59041;DHT22;44825;53.200;6.448;2022-09-21T05:29:39;8.80;99.90
59041;DHT22;44825;53.200;6.448;2022-09-21T05:32:12;8.80;99.90
59041;DHT22;44825;53.200;6.448;2022-09-21T05:34:52;8.80;99.90
59041;DHT22;44825;53.200;6.448;2022-09-21T05:37:42;8.80;99.90
59041;DHT22;44825;53.200;6.448;2022-09-21T05:40:11;8.80;99.90
59041;DHT22;44825;53.200;6.448;2022-09-21T05:42:39;8.80;99.90
59041;DHT22;44825;53.200;6.448;2022-09-21T05:45:11;8.80;99.90
59041;DHT22;44825;53.200;6.448;2022-09-21T05:47:48;8.80;99.90
59041;DHT22;44825;53.200;6.448;2022-09-21T05:50:40;8.80;99.90
59041;DHT22;44825;53.200;6.448;2022-09-21T05:53:18;8.80;99.90
59041;DHT22;44825;53.200;6.448;2022-09-21T05:55:54;8.90;99.90
59041;DHT22;44825;53.200;6.448;2022-09-21T05:58:28;8.90;99.90
59041;DHT22;44825;53.200;6.448;2022-09-21T06:01:08;8.90;99.90
59041;DHT22;44825;53.200;6.448;2022-09-21T06:03:40;8.90;99.90
59041;DHT22;44825;53.200;6.448;2022-09-21T06:06:09;8.80;99.90
59041;DHT22;44825;53.200;6.448;2022-09-21T06:08:36;8.80;99.90
59041;DHT22;44825;53.200;6.448;2022-09-21T06:11:04;8.80;99.90
59041;DHT22;44825;53.200;6.448;2022-09-21T06:13:31;8.80;99.90
59041;DHT22;44825;53.200;6.448;2022-09-21T06:16:00;8.90;99.90
59041;DHT22;44825;53.200;6.448;2022-09-21T06:18:28;8.90;99.90
59041;DHT22;44825;53.200;6.448;2022-09-21T06:20:55;9.00;99.90
59041;DHT22;44825;53.200;6.448;2022-09-21T06:23:24;9.00;99.90
59041;DHT22;44825;53.200;6.448;2022-09-21T06:25:51;9.10;99.90
59041;DHT22;44825;53.200;6.448;2022-09-21T06:28:19;9.20;99.90
59041;DHT22;44825;53.200;6.448;2022-09-21T06:30:50;9.20;99.90
59041;DHT22;44825;53.200;6.448;2022-09-21T06:33:17;9.20;99.90
59041;DHT22;44825;53.200;6.448;2022-09-21T06:35:52;9.30;99.90
59041;DHT22;44825;53.200;6.448;2022-09-21T06:38:20;9.20;99.90
59041;DHT22;44825;53.200;6.448;2022-09-21T06:40:49;9.30;99.90
59041;DHT22;44825;53.200;6.448;2022-09-21T06:43:17;9.30;99.90
59041;DHT22;44825;53.200;6.448;2022-09-21T06:45:52;9.40;99.90
59041;DHT22;44825;53.200;6.448;2022-09-21T06:48:19;9.50;99.90
59041;DHT22;44825;53.200;6.448;2022-09-21T06:50:47;9.60;99.90
59041;DHT22;44825;53.200;6.448;2022-09-21T06:53:15;9.60;99.90
59041;DHT22;44825;53.200;6.448;2022-09-21T06:55:43;9.70;99.90
59041;DHT22;44825;53.200;6.448;2022-09-21T06:58:11;9.80;99.90
59041;DHT22;44825;53.200;6.448;2022-09-21T07:00:39;9.90;99.90
59041;DHT22;44825;53.200;6.448;2022-09-21T07:03:09;9.90;99.90
59041;DHT22;44825;53.200;6.448;2022-09-21T07:05:36;10.10;99.90
59041;DHT22;44825;53.200;6.448;2022-09-21T07:08:04;10.10;99.90
59041;DHT22;44825;53.200;6.448;2022-09-21T07:10:31;10.20;99.90
59041;DHT22;44825;53.200;6.448;2022-09-21T07:13:01;10.20;99.90
59041;DHT22;44825;53.200;6.448;2022-09-21T07:15:30;10.30;99.90
59041;DHT22;44825;53.200;6.448;2022-09-21T07:17:58;10.50;99.90
59041;DHT22;44825;53.200;6.448;2022-09-21T07:20:25;10.50;99.90
59041;DHT22;44825;53.200;6.448;2022-09-21T07:22:53;10.60;99.90
59041;DHT22;44825;53.200;6.448;2022-09-21T07:25:20;10.60;99.90
59041;DHT22;44825;53.200;6.448;2022-09-21T07:27:47;10.70;99.90
59041;DHT22;44825;53.200;6.448;2022-09-21T07:30:15;10.70;99.90
59041;DHT22;44825;53.200;6.448;2022-09-21T07:32:43;10.80;99.90
59041;DHT22;44825;53.200;6.448;2022-09-21T07:35:11;10.90;99.90
59041;DHT22;44825;53.200;6.448;2022-09-21T07:37:38;11.00;99.90
59041;DHT22;44825;53.200;6.448;2022-09-21T07:40:06;11.10;99.90
59041;DHT22;44825;53.200;6.448;2022-09-21T07:42:34;11.10;99.90
59041;DHT22;44825;53.200;6.448;2022-09-21T07:45:01;11.20;99.90
59041;DHT22;44825;53.200;6.448;2022-09-21T07:47:28;11.30;99.90
59041;DHT22;44825;53.200;6.448;2022-09-21T07:49:57;11.30;99.90
59041;DHT22;44825;53.200;6.448;2022-09-21T07:52:24;11.40;99.90
59041;DHT22;44825;53.200;6.448;2022-09-21T07:54:52;11.50;99.90
59041;DHT22;44825;53.200;6.448;2022-09-21T07:57:19;11.60;99.90
59041;DHT22;44825;53.200;6.448;2022-09-21T08:00:05;11.60;99.90
59041;DHT22;44825;53.200;6.448;2022-09-21T08:02:34;11.70;99.90
59041;DHT22;44825;53.200;6.448;2022-09-21T08:05:03;11.80;99.90
59041;DHT22;44825;53.200;6.448;2022-09-21T08:07:30;11.90;99.90
59041;DHT22;44825;53.200;6.448;2022-09-21T08:09:58;12.00;99.90
59041;DHT22;44825;53.200;6.448;2022-09-21T08:12:25;12.10;99.90
59041;DHT22;44825;53.200;6.448;2022-09-21T08:14:52;12.10;99.90
59041;DHT22;44825;53.200;6.448;2022-09-21T08:17:19;12.20;99.90
59041;DHT22;44825;53.200;6.448;2022-09-21T08:19:47;12.30;99.90
59041;DHT22;44825;53.200;6.448;2022-09-21T08:22:15;12.30;99.90
59041;DHT22;44825;53.200;6.448;2022-09-21T08:24:43;12.40;99.90
59041;DHT22;44825;53.200;6.448;2022-09-21T08:27:11;12.50;99.90
59041;DHT22;44825;53.200;6.448;2022-09-21T08:29:38;12.60;99.90
59041;DHT22;44825;53.200;6.448;2022-09-21T08:32:06;12.70;99.90
59041;DHT22;44825;53.200;6.448;2022-09-21T08:34:33;12.80;99.90
59041;DHT22;44825;53.200;6.448;2022-09-21T08:37:01;12.90;99.90
59041;DHT22;44825;53.200;6.448;2022-09-21T08:39:29;12.90;99.90
59041;DHT22;44825;53.200;6.448;2022-09-21T08:42:09;13.00;99.90
59041;DHT22;44825;53.200;6.448;2022-09-21T08:44:42;13.10;99.90
59041;DHT22;44825;53.200;6.448;2022-09-21T08:47:14;13.20;99.90
59041;DHT22;44825;53.200;6.448;2022-09-21T08:49:46;13.30;99.90
59041;DHT22;44825;53.200;6.448;2022-09-21T08:52:16;13.40;99.90
59041;DHT22;44825;53.200;6.448;2022-09-21T08:54:48;13.50;99.90
59041;DHT22;44825;53.200;6.448;2022-09-21T08:57:19;13.60;99.90
59041;DHT22;44825;53.200;6.448;2022-09-21T08:59:49;13.70;99.90
59041;DHT22;44825;53.200;6.448;2022-09-21T09:02:37;13.80;99.90
59041;DHT22;44825;53.200;6.448;2022-09-21T09:05:21;13.80;99.90
59041;DHT22;44825;53.200;6.448;2022-09-21T09:10:55;14.00;99.90
59041;DHT22;44825;53.200;6.448;2022-09-21T09:13:49;14.10;99.90
59041;DHT22;44825;53.200;6.448;2022-09-21T09:16:24;14.10;99.90
59041;DHT22;44825;53.200;6.448;2022-09-21T09:18:59;14.20;99.90
59041;DHT22;44825;53.200;6.448;2022-09-21T09:21:36;14.30;99.90
59041;DHT22;44825;53.200;6.448;2022-09-21T09:24:09;14.40;99.90
59041;DHT22;44825;53.200;6.448;2022-09-21T09:26:42;14.40;99.90
59041;DHT22;44825;53.200;6.448;2022-09-21T09:29:17;14.50;99.90
59041;DHT22;44825;53.200;6.448;2022-09-21T09:31:48;14.60;99.90
59041;DHT22;44825;53.200;6.448;2022-09-21T09:34:23;14.70;99.90
59041;DHT22;44825;53.200;6.448;2022-09-21T09:36:56;14.80;99.90
59041;DHT22;44825;53.200;6.448;2022-09-21T09:39:25;14.80;99.90
59041;DHT22;44825;53.200;6.448;2022-09-21T09:42:16;14.90;99.90
59041;DHT22;44825;53.200;6.448;2022-09-21T09:45:10;15.00;99.90
59041;DHT22;44825;53.200;6.448;2022-09-21T09:47:52;15.10;99.90
59041;DHT22;44825;53.200;6.448;2022-09-21T09:50:26;15.20;99.90
59041;DHT22;44825;53.200;6.448;2022-09-21T09:53:00;15.30;99.90
59041;DHT22;44825;53.200;6.448;2022-09-21T09:55:35;15.30;99.40
59041;DHT22;44825;53.200;6.448;2022-09-21T09:58:10;15.40;98.90
59041;DHT22;44825;53.200;6.448;2022-09-21T10:00:41;15.40;98.10
59041;DHT22;44825;53.200;6.448;2022-09-21T10:03:15;15.50;98.00
59041;DHT22;44825;53.200;6.448;2022-09-21T10:05:44;15.60;98.40
59041;DHT22;44825;53.200;6.448;2022-09-21T10:08:39;15.70;98.80
59041;DHT22;44825;53.200;6.448;2022-09-21T10:11:09;15.80;98.50
59041;DHT22;44825;53.200;6.448;2022-09-21T10:13:39;15.90;98.30
59041;DHT22;44825;53.200;6.448;2022-09-21T10:16:12;16.00;98.30
59041;DHT22;44825;53.200;6.448;2022-09-21T10:18:44;16.10;97.10
59041;DHT22;44825;53.200;6.448;2022-09-21T10:21:17;16.10;96.90
59041;DHT22;44825;53.200;6.448;2022-09-21T10:23:47;16.20;96.90
59041;DHT22;44825;53.200;6.448;2022-09-21T10:26:16;16.30;96.00
59041;DHT22;44825;53.200;6.448;2022-09-21T10:28:56;16.30;95.50
59041;DHT22;44825;53.200;6.448;2022-09-21T10:31:25;16.30;95.00
59041;DHT22;44825;53.200;6.448;2022-09-21T10:34:04;16.40;95.30
59041;DHT22;44825;53.200;6.448;2022-09-21T10:36:33;16.40;95.30
59041;DHT22;44825;53.200;6.448;2022-09-21T10:39:22;16.60;95.40
59041;DHT22;44825;53.200;6.448;2022-09-21T10:41:58;16.70;95.20
59041;DHT22;44825;53.200;6.448;2022-09-21T10:44:33;16.70;95.60
59041;DHT22;44825;53.200;6.448;2022-09-21T10:47:15;16.90;94.70
59041;DHT22;44825;53.200;6.448;2022-09-21T10:49:45;17.00;95.10
59041;DHT22;44825;53.200;6.448;2022-09-21T10:52:13;17.20;95.00
59041;DHT22;44825;53.200;6.448;2022-09-21T10:54:41;17.30;94.60
59041;DHT22;44825;53.200;6.448;2022-09-21T10:57:14;17.40;94.50
59041;DHT22;44825;53.200;6.448;2022-09-21T10:59:44;17.60;94.20
59041;DHT22;44825;53.200;6.448;2022-09-21T11:02:33;17.70;94.10
59041;DHT22;44825;53.200;6.448;2022-09-21T11:05:07;17.80;93.40
59041;DHT22;44825;53.200;6.448;2022-09-21T11:07:40;17.80;93.60
59041;DHT22;44825;53.200;6.448;2022-09-21T11:10:15;17.90;92.00
59041;DHT22;44825;53.200;6.448;2022-09-21T11:13:03;17.90;91.50
59041;DHT22;44825;53.200;6.448;2022-09-21T11:15:43;18.00;91.70
59041;DHT22;44825;53.200;6.448;2022-09-21T11:18:18;18.10;91.20
59041;DHT22;44825;53.200;6.448;2022-09-21T11:20:51;18.20;91.40
59041;DHT22;44825;53.200;6.448;2022-09-21T11:23:39;18.20;90.30
59041;DHT22;44825;53.200;6.448;2022-09-21T11:26:14;18.20;85.20
59041;DHT22;44825;53.200;6.448;2022-09-21T11:28:48;18.20;88.60
59041;DHT22;44825;53.200;6.448;2022-09-21T11:31:40;18.30;86.00
59041;DHT22;44825;53.200;6.448;2022-09-21T11:34:24;18.30;87.10
59041;DHT22;44825;53.200;6.448;2022-09-21T11:37:03;18.40;87.50
59041;DHT22;44825;53.200;6.448;2022-09-21T11:39:47;18.40;89.50
59041;DHT22;44825;53.200;6.448;2022-09-21T11:42:30;18.50;90.50
59041;DHT22;44825;53.200;6.448;2022-09-21T11:45:04;18.50;88.50
59041;DHT22;44825;53.200;6.448;2022-09-21T11:47:48;18.50;87.20
59041;DHT22;44825;53.200;6.448;2022-09-21T11:50:28;18.50;86.40
59041;DHT22;44825;53.200;6.448;2022-09-21T11:53:10;18.50;86.50
59041;DHT22;44825;53.200;6.448;2022-09-21T11:58:50;18.50;86.50
59041;DHT22;44825;53.200;6.448;2022-09-21T12:01:37;18.50;88.20
59041;DHT22;44825;53.200;6.448;2022-09-21T12:04:21;18.50;88.70
59041;DHT22;44825;53.200;6.448;2022-09-21T12:07:01;18.50;87.80
59041;DHT22;44825;53.200;6.448;2022-09-21T12:09:46;18.40;86.70
59041;DHT22;44825;53.200;6.448;2022-09-21T12:12:20;18.40;85.20
59041;DHT22;44825;53.200;6.448;2022-09-21T12:14:56;18.30;84.80
59041;DHT22;44825;53.200;6.448;2022-09-21T12:17:36;18.30;84.40
59041;DHT22;44825;53.200;6.448;2022-09-21T12:20:11;18.30;85.60
59041;DHT22;44825;53.200;6.448;2022-09-21T12:22:42;18.20;85.40
59041;DHT22;44825;53.200;6.448;2022-09-21T12:25:14;18.20;84.10
59041;DHT22;44825;53.200;6.448;2022-09-21T12:27:46;18.10;82.90
59041;DHT22;44825;53.200;6.448;2022-09-21T12:30:17;18.10;84.20
59041;DHT22;44825;53.200;6.448;2022-09-21T12:32:54;18.10;83.60
59041;DHT22;44825;53.200;6.448;2022-09-21T12:35:29;18.00;82.60
59041;DHT22;44825;53.200;6.448;2022-09-21T12:38:04;18.00;83.20
59041;DHT22;44825;53.200;6.448;2022-09-21T12:40:37;17.90;81.70
59041;DHT22;44825;53.200;6.448;2022-09-21T12:43:12;17.90;79.90
59041;DHT22;44825;53.200;6.448;2022-09-21T12:45:46;17.80;79.30
59041;DHT22;44825;53.200;6.448;2022-09-21T12:48:26;17.70;81.60
59041;DHT22;44825;53.200;6.448;2022-09-21T12:50:59;17.70;81.20
59041;DHT22;44825;53.200;6.448;2022-09-21T12:53:29;17.70;81.60
59041;DHT22;44825;53.200;6.448;2022-09-21T12:56:04;17.60;81.10
59041;DHT22;44825;53.200;6.448;2022-09-21T12:59:02;17.60;79.90
59041;DHT22;44825;53.200;6.448;2022-09-21T13:01:34;17.60;78.60
59041;DHT22;44825;53.200;6.448;2022-09-21T13:04:18;17.50;78.40
59041;DHT22;44825;53.200;6.448;2022-09-21T13:07:18;17.60;79.10
59041;DHT22;44825;53.200;6.448;2022-09-21T13:09:50;17.50;80.60
59041;DHT22;44825;53.200;6.448;2022-09-21T13:12:20;17.50;80.00
59041;DHT22;44825;53.200;6.448;2022-09-21T13:14:51;17.50;78.90
59041;DHT22;44825;53.200;6.448;2022-09-21T13:17:21;17.50;77.80
59041;DHT22;44825;53.200;6.448;2022-09-21T13:19:58;17.40;77.10
59041;DHT22;44825;53.200;6.448;2022-09-21T13:22:30;17.30;75.60
59041;DHT22;44825;53.200;6.448;2022-09-21T13:25:04;17.30;76.20
59041;DHT22;44825;53.200;6.448;2022-09-21T13:28:00;17.20;76.60
59041;DHT22;44825;53.200;6.448;2022-09-21T13:30:31;17.20;75.70
59041;DHT22;44825;53.200;6.448;2022-09-21T13:33:00;17.20;76.60
59041;DHT22;44825;53.200;6.448;2022-09-21T13:35:51;17.20;76.80
59041;DHT22;44825;53.200;6.448;2022-09-21T13:38:24;17.20;75.00
59041;DHT22;44825;53.200;6.448;2022-09-21T13:41:00;17.10;76.90
59041;DHT22;44825;53.200;6.448;2022-09-21T13:44:01;17.10;76.80
59041;DHT22;44825;53.200;6.448;2022-09-21T13:46:51;17.00;75.80
59041;DHT22;44825;53.200;6.448;2022-09-21T13:49:26;17.00;75.10
59041;DHT22;44825;53.200;6.448;2022-09-21T13:51:59;17.00;76.00
59041;DHT22;44825;53.200;6.448;2022-09-21T13:54:30;17.00;74.80
59041;DHT22;44825;53.200;6.448;2022-09-21T13:57:02;16.90;75.00
59041;DHT22;44825;53.200;6.448;2022-09-21T13:59:32;16.90;74.20
59041;DHT22;44825;53.200;6.448;2022-09-21T14:02:01;16.80;74.70
59041;DHT22;44825;53.200;6.448;2022-09-21T14:04:32;16.80;74.10
59041;DHT22;44825;53.200;6.448;2022-09-21T14:07:04;16.80;72.80
59041;DHT22;44825;53.200;6.448;2022-09-21T14:09:38;16.70;72.90
59041;DHT22;44825;53.200;6.448;2022-09-21T14:12:11;16.70;74.30
59041;DHT22;44825;53.200;6.448;2022-09-21T14:15:09;16.80;74.40
59041;DHT22;44825;53.200;6.448;2022-09-21T14:17:38;16.70;75.90
59041;DHT22;44825;53.200;6.448;2022-09-21T14:20:25;16.70;76.20
59041;DHT22;44825;53.200;6.448;2022-09-21T14:23:25;16.70;75.40
59041;DHT22;44825;53.200;6.448;2022-09-21T14:25:54;16.60;75.30
59041;DHT22;44825;53.200;6.448;2022-09-21T14:28:31;16.60;75.40
59041;DHT22;44825;53.200;6.448;2022-09-21T14:31:05;16.60;74.50
59041;DHT22;44825;53.200;6.448;2022-09-21T14:33:42;16.60;74.90
59041;DHT22;44825;53.200;6.448;2022-09-21T14:36:13;16.60;74.50
59041;DHT22;44825;53.200;6.448;2022-09-21T14:38:46;16.60;74.20
59041;DHT22;44825;53.200;6.448;2022-09-21T14:41:17;16.60;74.30
59041;DHT22;44825;53.200;6.448;2022-09-21T14:43:49;16.50;76.30
59041;DHT22;44825;53.200;6.448;2022-09-21T14:46:29;16.50;75.30
59041;DHT22;44825;53.200;6.448;2022-09-21T14:49:12;16.50;74.70
59041;DHT22;44825;53.200;6.448;2022-09-21T14:51:49;16.50;74.60
59041;DHT22;44825;53.200;6.448;2022-09-21T14:54:30;16.50;74.50
59041;DHT22;44825;53.200;6.448;2022-09-21T14:57:25;16.50;75.00
59041;DHT22;44825;53.200;6.448;2022-09-21T15:00:15;16.50;76.40
59041;DHT22;44825;53.200;6.448;2022-09-21T15:02:51;16.40;75.40
59041;DHT22;44825;53.200;6.448;2022-09-21T15:05:28;16.40;75.80
59041;DHT22;44825;53.200;6.448;2022-09-21T15:08:13;16.50;75.80
59041;DHT22;44825;53.200;6.448;2022-09-21T15:11:08;16.40;75.90
59041;DHT22;44825;53.200;6.448;2022-09-21T15:13:49;16.40;76.90
59041;DHT22;44825;53.200;6.448;2022-09-21T15:16:30;16.40;77.40
59041;DHT22;44825;53.200;6.448;2022-09-21T15:19:20;16.40;77.40
59041;DHT22;44825;53.200;6.448;2022-09-21T15:21:49;16.40;80.30
59041;DHT22;44825;53.200;6.448;2022-09-21T15:24:20;16.40;83.90
59041;DHT22;44825;53.200;6.448;2022-09-21T15:26:48;16.40;88.10
59041;DHT22;44825;53.200;6.448;2022-09-21T15:29:22;16.40;90.30
59041;DHT22;44825;53.200;6.448;2022-09-21T15:31:51;16.40;91.40
59041;DHT22;44825;53.200;6.448;2022-09-21T15:34:20;16.30;91.60
59041;DHT22;44825;53.200;6.448;2022-09-21T15:36:49;16.40;92.20
59041;DHT22;44825;53.200;6.448;2022-09-21T15:39:25;16.30;92.20
59041;DHT22;44825;53.200;6.448;2022-09-21T15:42:16;16.30;92.70
59041;DHT22;44825;53.200;6.448;2022-09-21T15:44:46;16.30;92.80
59041;DHT22;44825;53.200;6.448;2022-09-21T15:47:18;16.20;92.80
59041;DHT22;44825;53.200;6.448;2022-09-21T15:49:47;16.20;92.90
59041;DHT22;44825;53.200;6.448;2022-09-21T15:52:26;16.20;92.80
59041;DHT22;44825;53.200;6.448;2022-09-21T15:54:57;16.10;93.30
59041;DHT22;44825;53.200;6.448;2022-09-21T15:57:30;16.10;93.70
59041;DHT22;44825;53.200;6.448;2022-09-21T16:00:02;16.10;93.90
59041;DHT22;44825;53.200;6.448;2022-09-21T16:02:35;16.00;93.80
59041;DHT22;44825;53.200;6.448;2022-09-21T16:05:06;16.00;94.10
59041;DHT22;44825;53.200;6.448;2022-09-21T16:07:35;16.00;94.60
59041;DHT22;44825;53.200;6.448;2022-09-21T16:10:35;15.90;94.40
59041;DHT22;44825;53.200;6.448;2022-09-21T16:13:03;15.90;94.10
59041;DHT22;44825;53.200;6.448;2022-09-21T16:15:59;15.90;94.50
59041;DHT22;44825;53.200;6.448;2022-09-21T16:18:31;15.80;95.00
59041;DHT22;44825;53.200;6.448;2022-09-21T16:21:09;15.80;95.30
59041;DHT22;44825;53.200;6.448;2022-09-21T16:23:39;15.70;95.40
59041;DHT22;44825;53.200;6.448;2022-09-21T16:26:17;15.80;95.80